Time;durP1;ratioP1;P1;durP2;ratioP2;P2;SDS_P1;SDS_P2;PMS_P1;PMS_P2;Temp;Humidity;BMP_temperature;BMP_pressure;BME280_temperature;BME280_humidity;BME280_pressure;Samples;Min_cycle;Max_cycle;Signal;HPM_P1;HPM_P2
2023/01/07 00:01:04;;;;;;;18.57;11.30;;;11.60;99.90;;;;;;5076179;28;20546;-79
2023/01/07 00:03:30;;;;;;;10.13;9.13;;;11.70;99.90;;;;;;5094458;28;20175;-80
2023/01/07 00:06:09;;;;;;;7.87;4.03;;;11.90;99.90;;;;;;5076351;28;20244;-79
2023/01/07 00:08:38;;;;;;;8.70;5.57;;;11.80;99.90;;;;;;5094126;28;20206;-80
2023/01/07 00:11:09;;;;;;;6.57;4.93;;;11.80;99.90;;;;;;5094156;28;20194;-78
2023/01/07 00:13:36;;;;;;;7.03;4.07;;;11.70;99.90;;;;;;5075833;28;20253;-78
2023/01/07 00:16:07;;;;;;;7.07;4.67;;;11.50;99.90;;;;;;5093889;28;20175;-79
2023/01/07 00:18:35;;;;;;;5.60;4.10;;;11.40;99.90;;;;;;5093814;28;20198;-78
2023/01/07 00:21:03;;;;;;;10.73;6.37;;;11.40;99.90;;;;;;5094023;28;20632;-79
2023/01/07 00:23:30;;;;;;;7.40;4.30;;;11.50;99.90;;;;;;5075733;28;20225;-79
2023/01/07 00:26:08;;;;;;;8.43;3.97;;;11.50;99.90;;;;;;5094029;28;20259;-79
2023/01/07 00:28:36;;;;;;;9.70;6.00;;;11.40;99.90;;;;;;5093579;28;20635;-79
2023/01/07 00:31:04;;;;;;;13.67;9.17;;;11.40;99.90;;;;;;5093366;28;20553;-79
2023/01/07 00:33:29;;;;;;;9.03;4.93;;;11.40;99.90;;;;;;5075079;28;20644;-79
2023/01/07 00:36:07;;;;;;;8.97;5.47;;;11.40;99.90;;;;;;5093815;28;20175;-79
2023/01/07 00:38:33;;;;;;;18.97;11.47;;;11.60;99.90;;;;;;5075570;28;20190;-78
2023/01/07 00:40:59;;;;;;;11.37;6.17;;;11.60;99.90;;;;;;5075215;28;20644;-76
2023/01/07 00:43:25;;;;;;;9.30;4.63;;;11.60;99.90;;;;;;5075029;28;20189;-76
2023/01/07 00:45:50;;;;;;;9.20;5.10;;;11.40;99.90;;;;;;5093450;28;20635;-79
2023/01/07 00:48:17;;;;;;;6.13;4.20;;;11.30;99.90;;;;;;5074903;28;20214;-77
2023/01/07 00:50:45;;;;;;;10.43;5.40;;;11.20;99.90;;;;;;5093184;28;20185;-77
2023/01/07 00:53:12;;;;;;;6.60;4.10;;;11.30;99.90;;;;;;5093072;28;20229;-74
2023/01/07 00:55:38;;;;;;;5.47;4.03;;;11.20;99.90;;;;;;5074699;28;20171;-75
2023/01/07 00:58:04;;;;;;;8.50;5.13;;;11.20;99.90;;;;;;5074860;28;20181;-74
2023/01/07 01:00:30;;;;;;;8.33;4.53;;;11.40;99.90;;;;;;5093038;28;20189;-74
2023/01/07 01:02:55;;;;;;;8.27;3.97;;;11.40;99.90;;;;;;5093101;28;20179;-74
2023/01/07 01:05:21;;;;;;;7.60;5.90;;;11.40;99.90;;;;;;5075038;28;20647;-74
2023/01/07 01:07:47;;;;;;;8.63;3.67;;;11.20;99.90;;;;;;5074357;28;20327;-74
2023/01/07 01:10:17;;;;;;;7.80;5.63;;;11.30;99.90;;;;;;5074496;28;20181;-74
2023/01/07 01:12:43;;;;;;;11.00;5.97;;;11.20;99.90;;;;;;5074549;28;20178;-75
2023/01/07 01:15:12;;;;;;;9.60;3.43;;;11.20;99.90;;;;;;5074745;28;20204;-74
2023/01/07 01:17:38;;;;;;;7.87;4.27;;;11.20;99.90;;;;;;5092758;28;20178;-75
2023/01/07 01:20:05;;;;;;;7.70;5.47;;;11.20;99.90;;;;;;5092787;28;20171;-74
2023/01/07 01:22:30;;;;;;;9.77;5.23;;;11.20;99.90;;;;;;5092542;28;20174;-74
2023/01/07 01:24:56;;;;;;;5.67;3.97;;;11.30;99.90;;;;;;5092003;28;20187;-74
2023/01/07 01:27:22;;;;;;;9.20;4.13;;;11.30;99.90;;;;;;5092445;28;20189;-74
2023/01/07 01:29:47;;;;;;;7.63;3.87;;;11.30;99.90;;;;;;5074359;28;20210;-75
2023/01/07 01:32:13;;;;;;;5.83;3.67;;;11.40;99.90;;;;;;5074557;28;20182;-74
2023/01/07 01:34:39;;;;;;;6.83;3.80;;;11.40;99.90;;;;;;5092436;28;20547;-74
2023/01/07 01:37:04;;;;;;;6.80;3.63;;;11.50;99.90;;;;;;5092508;28;20177;-74
2023/01/07 01:39:31;;;;;;;4.93;3.57;;;11.50;99.90;;;;;;5092471;28;20163;-74
2023/01/07 01:41:57;;;;;;;10.87;3.67;;;11.40;99.90;;;;;;5092569;28;20178;-74
2023/01/07 01:44:44;;;;;;;5.80;3.63;;;11.40;99.90;;;;;;5074224;28;20187;-75
2023/01/07 01:47:34;;;;;;;5.63;3.97;;;11.60;99.90;;;;;;5091916;28;20182;-75
2023/01/07 01:50:20;;;;;;;6.27;3.53;;;11.50;99.90;;;;;;5092318;28;20497;-75
2023/01/07 01:52:59;;;;;;;5.97;3.50;;;11.60;99.90;;;;;;5092190;28;20177;-74
2023/01/07 01:55:35;;;;;;;7.50;3.73;;;11.40;99.90;;;;;;5073883;28;20226;-74
2023/01/07 01:58:06;;;;;;;4.97;3.10;;;11.30;99.90;;;;;;5074144;28;20197;-74
2023/01/07 02:00:34;;;;;;;5.90;3.80;;;11.30;99.90;;;;;;5092374;28;20190;-76
2023/01/07 02:03:00;;;;;;;3.63;3.07;;;11.30;99.90;;;;;;5092121;28;20178;-74
2023/01/07 02:05:33;;;;;;;6.83;3.20;;;11.40;99.90;;;;;;5092382;28;20189;-78
2023/01/07 02:08:00;;;;;;;4.40;3.20;;;11.50;99.90;;;;;;5095443;28;20563;-78
2023/01/07 02:10:27;;;;;;;4.93;3.10;;;11.50;99.90;;;;;;5096433;28;20239;-78
2023/01/07 02:13:17;;;;;;;5.33;3.10;;;11.60;99.90;;;;;;5096610;28;20254;-78
2023/01/07 02:15:42;;;;;;;3.90;2.70;;;11.60;99.90;;;;;;5096475;28;20189;-80
2023/01/07 02:18:19;;;;;;;7.63;3.23;;;11.60;99.90;;;;;;5078508;28;20191;-79
2023/01/07 02:21:23;;;;;;;4.00;2.93;;;11.70;99.90;;;;;;5078092;28;20564;-77
2023/01/07 02:24:28;;;;;;;5.23;3.27;;;11.60;99.90;;;;;;5073306;28;20612;-77
2023/01/07 02:27:16;;;;;;;5.83;3.63;;;11.60;99.90;;;;;;5091368;28;20622;-77
2023/01/07 02:30:09;;;;;;;7.60;3.57;;;11.80;99.90;;;;;;5077554;28;20606;-79
2023/01/07 02:32:53;;;;;;;7.40;2.90;;;11.80;99.90;;;;;;5078269;28;20531;-79
2023/01/07 02:35:19;;;;;;;4.83;2.93;;;11.80;99.90;;;;;;5096282;28;20228;-79
2023/01/07 02:38:22;;;;;;;4.57;3.23;;;11.90;99.90;;;;;;5095773;28;20645;-75
2023/01/07 02:41:27;;;;;;;4.70;3.00;;;11.80;99.90;;;;;;5077190;28;20188;-75
2023/01/07 02:43:59;;;;;;;4.47;2.70;;;11.90;99.90;;;;;;5095703;28;20178;-74
2023/01/07 02:47:04;;;;;;;6.47;2.60;;;11.80;99.90;;;;;;5095193;28;20182;-74
2023/01/07 02:49:31;;;;;;;3.37;2.40;;;11.80;99.90;;;;;;4977345;28;20554;-74
2023/01/07 02:52:21;;;;;;;4.03;2.30;;;11.80;99.90;;;;;;5077900;28;20220;-74
2023/01/07 02:55:18;;;;;;;6.23;2.50;;;11.80;99.90;;;;;;5095383;28;20584;-74
2023/01/07 02:58:01;;;;;;;8.60;2.87;;;11.70;99.90;;;;;;5069610;28;20187;-74
2023/01/07 03:00:38;;;;;;;4.33;2.10;;;11.80;99.90;;;;;;5094681;28;20226;-74
2023/01/07 03:03:26;;;;;;;2.40;1.67;;;11.80;99.90;;;;;;5095285;28;20232;-74
2023/01/07 03:06:26;;;;;;;2.27;2.07;;;11.70;99.90;;;;;;5076915;28;20186;-74
2023/01/07 03:09:19;;;;;;;3.10;1.80;;;11.80;99.90;;;;;;5095211;28;20198;-73
2023/01/07 03:12:04;;;;;;;3.67;2.03;;;11.90;99.90;;;;;;5095049;28;20243;-74
2023/01/07 03:14:44;;;;;;;3.83;2.20;;;11.90;99.90;;;;;;5095229;28;20171;-74
2023/01/07 03:17:18;;;;;;;3.17;2.00;;;11.90;99.90;;;;;;5076690;28;20555;-74
2023/01/07 03:19:53;;;;;;;3.23;2.00;;;12.10;99.90;;;;;;5074770;28;20232;-74
2023/01/07 03:22:21;;;;;;;5.17;1.73;;;12.10;99.90;;;;;;5069040;28;20188;-74
2023/01/07 03:24:50;;;;;;;2.47;1.73;;;12.10;99.90;;;;;;5076796;28;20588;-74
2023/01/07 03:27:19;;;;;;;5.20;1.80;;;11.90;99.90;;;;;;5094851;28;20185;-74
2023/01/07 03:29:47;;;;;;;4.23;2.00;;;11.80;99.90;;;;;;5094398;28;20211;-74
2023/01/07 03:32:16;;;;;;;3.10;1.60;;;11.80;99.90;;;;;;5094766;28;20178;-74
2023/01/07 03:34:43;;;;;;;2.57;1.70;;;11.90;99.90;;;;;;5094444;28;20188;-74
2023/01/07 03:37:12;;;;;;;3.33;1.73;;;11.80;99.90;;;;;;5076377;28;20282;-74
2023/01/07 03:39:39;;;;;;;3.60;1.77;;;11.70;99.90;;;;;;5076492;28;20274;-74
2023/01/07 03:44:51;;;;;;;2.63;1.40;;;11.70;99.90;;;;;;5094703;28;20232;-74
2023/01/07 03:47:17;;;;;;;3.60;1.90;;;11.90;99.90;;;;;;5094238;28;20578;-74
2023/01/07 03:49:43;;;;;;;1.77;1.30;;;12.00;99.90;;;;;;5093817;28;20223;-74
2023/01/07 03:52:08;;;;;;;4.20;1.70;;;11.90;99.90;;;;;;5094286;28;20266;-74
2023/01/07 03:54:34;;;;;;;3.37;1.50;;;11.90;99.90;;;;;;5094383;28;20633;-74
2023/01/07 03:56:59;;;;;;;4.13;1.47;;;11.90;99.90;;;;;;5094312;28;20176;-74
2023/01/07 03:59:25;;;;;;;2.80;1.03;;;11.90;99.90;;;;;;5094740;28;20183;-74
2023/01/07 04:01:51;;;;;;;2.93;1.37;;;11.80;99.90;;;;;;5094147;28;20179;-74
2023/01/07 04:04:16;;;;;;;4.20;1.60;;;11.80;99.90;;;;;;5094037;28;20538;-74
2023/01/07 04:06:42;;;;;;;3.03;1.20;;;11.80;99.90;;;;;;5076010;28;20186;-74
2023/01/07 04:09:07;;;;;;;1.83;1.30;;;11.70;99.90;;;;;;5075980;28;20559;-74
2023/01/07 04:11:33;;;;;;;5.40;1.37;;;11.70;99.90;;;;;;5094052;28;20211;-74
2023/01/07 04:13:59;;;;;;;3.90;1.67;;;11.60;99.90;;;;;;5094246;28;20529;-74
2023/01/07 04:16:26;;;;;;;3.70;1.33;;;11.40;99.90;;;;;;5093229;28;20178;-74
2023/01/07 04:18:51;;;;;;;2.27;1.23;;;11.50;99.90;;;;;;5075717;28;20192;-74
2023/01/07 04:21:17;;;;;;;2.83;1.20;;;11.60;99.90;;;;;;5093923;28;20180;-74
2023/01/07 04:23:43;;;;;;;1.30;1.20;;;11.50;99.90;;;;;;5093315;28;20194;-74
2023/01/07 04:26:08;;;;;;;3.60;1.10;;;11.40;99.90;;;;;;5093777;28;20182;-74
2023/01/07 04:28:34;;;;;;;2.60;1.13;;;11.40;99.90;;;;;;5093465;28;20282;-74
2023/01/07 04:30:59;;;;;;;1.80;1.10;;;11.40;99.90;;;;;;5074736;28;20614;-74
2023/01/07 04:33:25;;;;;;;3.77;1.10;;;11.50;99.90;;;;;;5093182;28;20179;-74
2023/01/07 04:35:51;;;;;;;2.63;1.00;;;11.60;99.90;;;;;;5075094;28;20265;-74
2023/01/07 04:38:16;;;;;;;3.03;1.00;;;11.70;99.90;;;;;;5093327;28;20182;-74
2023/01/07 04:40:42;;;;;;;2.20;1.20;;;11.60;99.90;;;;;;5093623;28;20652;-74
2023/01/07 04:43:08;;;;;;;1.40;1.00;;;11.60;99.90;;;;;;5093233;28;20279;-74
2023/01/07 04:45:34;;;;;;;0.93;0.90;;;11.50;99.90;;;;;;5093340;28;20265;-74
2023/01/07 04:48:01;;;;;;;2.37;0.90;;;11.50;99.90;;;;;;5093037;28;20288;-74
2023/01/07 04:50:27;;;;;;;1.30;0.80;;;11.40;99.90;;;;;;5093290;28;20218;-74
2023/01/07 04:52:53;;;;;;;1.27;0.70;;;11.40;99.90;;;;;;5075125;28;20338;-74
2023/01/07 04:55:19;;;;;;;1.27;0.87;;;11.40;99.90;;;;;;5093287;28;20175;-74
2023/01/07 04:57:45;;;;;;;1.93;0.90;;;11.40;99.90;;;;;;5093154;28;20172;-74
2023/01/07 05:00:12;;;;;;;2.47;0.83;;;11.30;99.90;;;;;;5074653;28;20230;-74
2023/01/07 05:02:37;;;;;;;2.70;0.90;;;11.40;99.90;;;;;;5092790;28;20170;-73
2023/01/07 05:05:03;;;;;;;2.60;0.83;;;11.50;99.90;;;;;;5074741;28;20274;-73
2023/01/07 05:07:29;;;;;;;1.50;0.80;;;11.40;99.90;;;;;;5074611;28;20265;-74
2023/01/07 05:09:54;;;;;;;2.00;0.90;;;11.50;99.90;;;;;;5074770;28;20211;-74
2023/01/07 05:12:20;;;;;;;3.13;1.10;;;11.50;99.90;;;;;;5092898;28;20580;-73
2023/01/07 05:14:45;;;;;;;0.83;0.70;;;11.50;99.90;;;;;;5092867;28;20531;-74
2023/01/07 05:17:11;;;;;;;1.00;0.60;;;11.30;99.90;;;;;;5093119;28;20170;-73
2023/01/07 05:19:37;;;;;;;1.70;0.80;;;11.30;99.90;;;;;;5092738;28;20707;-74
2023/01/07 05:22:03;;;;;;;1.30;0.80;;;11.30;99.90;;;;;;5093134;28;20178;-74
2023/01/07 05:24:29;;;;;;;1.27;0.70;;;11.40;99.90;;;;;;5092842;28;20608;-74
2023/01/07 05:26:55;;;;;;;1.57;0.83;;;11.40;99.90;;;;;;5092608;28;20167;-74
2023/01/07 05:29:20;;;;;;;0.93;0.70;;;11.50;99.90;;;;;;5074477;28;20212;-74
2023/01/07 05:31:46;;;;;;;1.17;0.80;;;11.50;99.90;;;;;;5092680;28;20566;-74
2023/01/07 05:34:11;;;;;;;1.57;0.80;;;11.70;99.90;;;;;;5092884;28;20465;-74
2023/01/07 05:36:37;;;;;;;1.53;0.93;;;11.70;99.90;;;;;;5092440;28;20175;-79
2023/01/07 05:39:02;;;;;;;3.17;1.37;;;11.70;99.90;;;;;;5074856;28;20354;-77
2023/01/07 05:41:28;;;;;;;2.87;1.13;;;11.50;99.90;;;;;;5092073;28;20175;-77
2023/01/07 05:43:54;;;;;;;5.40;2.43;;;11.50;99.90;;;;;;5092724;28;20167;-74
2023/01/07 05:46:19;;;;;;;1.20;0.90;;;11.50;99.90;;;;;;5092536;28;20175;-74
2023/01/07 05:48:45;;;;;;;5.93;1.90;;;11.40;99.90;;;;;;5092409;28;20194;-74
2023/01/07 05:51:10;;;;;;;1.87;1.23;;;11.40;99.90;;;;;;5092617;28;20175;-75
2023/01/07 05:53:36;;;;;;;5.67;3.23;;;11.40;99.90;;;;;;5074454;28;20692;-74
2023/01/07 05:56:02;;;;;;;7.30;3.63;;;11.30;99.90;;;;;;5092271;28;20182;-74
2023/01/07 05:58:27;;;;;;;5.93;2.73;;;11.40;99.90;;;;;;5092514;28;20213;-74
2023/01/07 06:00:54;;;;;;;3.50;1.93;;;11.30;99.90;;;;;;5092295;28;20178;-74
2023/01/07 06:03:20;;;;;;;8.50;3.80;;;11.40;99.90;;;;;;5092199;28;20190;-74
2023/01/07 06:05:47;;;;;;;11.37;5.10;;;11.40;99.90;;;;;;5074472;28;20179;-74
2023/01/07 06:08:13;;;;;;;5.37;2.40;;;11.40;99.90;;;;;;5074399;28;20206;-74
2023/01/07 06:10:40;;;;;;;2.40;1.40;;;11.40;99.90;;;;;;5092303;28;20174;-74
2023/01/07 06:13:06;;;;;;;4.63;2.53;;;11.40;99.90;;;;;;5074426;28;20265;-74
2023/01/07 06:15:31;;;;;;;9.77;4.77;;;11.40;99.90;;;;;;5092299;28;20662;-74
2023/01/07 06:17:58;;;;;;;13.77;5.50;;;11.50;99.90;;;;;;5092401;28;20255;-74
2023/01/07 06:20:24;;;;;;;12.17;6.30;;;11.40;99.90;;;;;;5074182;28;20186;-74
2023/01/07 06:22:51;;;;;;;3.33;2.10;;;11.50;99.90;;;;;;5092434;28;20186;-74
2023/01/07 06:25:16;;;;;;;12.47;6.97;;;11.40;99.90;;;;;;5091756;28;20176;-74
2023/01/07 06:27:42;;;;;;;23.33;15.33;;;11.30;99.90;;;;;;5092049;28;20185;-74
2023/01/07 06:30:09;;;;;;;6.83;5.70;;;11.40;99.90;;;;;;5073880;28;20210;-74
2023/01/07 06:32:39;;;;;;;7.50;6.63;;;11.50;99.90;;;;;;5073988;28;20180;-74
2023/01/07 06:35:06;;;;;;;2.20;2.00;;;11.60;99.90;;;;;;5074115;28;20178;-74
2023/01/07 06:37:32;;;;;;;3.23;1.50;;;11.70;99.90;;;;;;5092158;28;20176;-74
2023/01/07 06:39:58;;;;;;;1.67;1.17;;;11.60;99.90;;;;;;5091331;28;20178;-74
2023/01/07 06:42:24;;;;;;;3.53;1.53;;;11.60;99.90;;;;;;5091885;28;20187;-74
2023/01/07 06:44:50;;;;;;;1.20;1.10;;;11.50;99.90;;;;;;5091913;28;20192;-75
2023/01/07 06:47:15;;;;;;;1.70;1.00;;;11.50;99.90;;;;;;5092166;28;20182;-74
2023/01/07 06:49:42;;;;;;;1.53;1.00;;;11.40;99.90;;;;;;5091854;28;20212;-74
2023/01/07 06:52:07;;;;;;;2.07;0.93;;;11.40;99.90;;;;;;5073872;28;20177;-74
2023/01/07 06:54:33;;;;;;;1.03;0.77;;;11.50;99.90;;;;;;5095553;28;20275;-74
2023/01/07 06:56:58;;;;;;;1.03;0.77;;;11.50;99.90;;;;;;5077043;28;20177;-74
2023/01/07 06:59:24;;;;;;;1.70;0.83;;;11.50;99.90;;;;;;5095231;28;20552;-74
2023/01/07 07:01:51;;;;;;;2.97;1.07;;;11.40;99.90;;;;;;5095554;28;20184;-74
2023/01/07 07:04:17;;;;;;;1.83;0.70;;;11.50;99.90;;;;;;5077429;28;20241;-74
2023/01/07 07:06:43;;;;;;;1.07;0.90;;;11.70;99.90;;;;;;5095281;28;20178;-74
2023/01/07 07:09:11;;;;;;;1.87;0.90;;;11.60;99.90;;;;;;5095418;28;20214;-74
2023/01/07 07:11:36;;;;;;;3.73;0.77;;;11.60;99.90;;;;;;5095241;28;20198;-74
2023/01/07 07:14:03;;;;;;;3.17;0.60;;;11.70;99.90;;;;;;5077159;28;20217;-74
2023/01/07 07:16:28;;;;;;;0.90;0.80;;;11.60;99.90;;;;;;5076955;28;20177;-75
2023/01/07 07:18:55;;;;;;;2.27;0.80;;;11.60;99.90;;;;;;5095404;28;20284;-75
2023/01/07 07:21:21;;;;;;;1.83;0.70;;;11.60;99.90;;;;;;5095211;28;20174;-75
2023/01/07 07:23:46;;;;;;;2.37;0.70;;;11.50;99.90;;;;;;5095138;28;20178;-75
2023/01/07 07:26:12;;;;;;;1.23;0.60;;;11.60;99.90;;;;;;5076497;28;20223;-75
2023/01/07 07:28:41;;;;;;;0.87;0.57;;;11.60;99.90;;;;;;5094744;28;20202;-72
2023/01/07 07:31:07;;;;;;;0.67;0.50;;;11.60;99.90;;;;;;5094889;28;20190;-76
2023/01/07 07:33:34;;;;;;;1.90;0.50;;;11.60;99.90;;;;;;5076796;28;20668;-75
2023/01/07 07:36:00;;;;;;;1.00;0.63;;;11.70;99.90;;;;;;5095036;28;20533;-73
2023/01/07 07:38:26;;;;;;;1.20;0.60;;;11.60;99.90;;;;;;5094785;28;20180;-75
2023/01/07 07:40:52;;;;;;;1.10;0.50;;;11.60;99.90;;;;;;5093925;28;20271;-76
2023/01/07 07:43:19;;;;;;;0.97;0.80;;;11.60;99.90;;;;;;5094406;28;20270;-73
2023/01/07 07:45:45;;;;;;;0.83;0.60;;;11.70;99.90;;;;;;5076717;28;20191;-73
2023/01/07 07:48:15;;;;;;;0.90;0.50;;;11.60;99.90;;;;;;5076425;28;20563;-73
2023/01/07 07:50:41;;;;;;;1.37;0.80;;;11.60;99.90;;;;;;5094755;28;20169;-73
2023/01/07 07:53:08;;;;;;;0.93;0.67;;;11.50;99.90;;;;;;5076602;28;20606;-73
2023/01/07 07:55:38;;;;;;;1.50;0.70;;;11.50;99.90;;;;;;5094684;28;20639;-73
2023/01/07 07:58:05;;;;;;;1.23;0.80;;;11.50;99.90;;;;;;5094093;28;20197;-73
2023/01/07 08:00:31;;;;;;;2.87;0.60;;;11.70;99.90;;;;;;5094084;28;20190;-73
2023/01/07 08:02:58;;;;;;;1.70;0.87;;;11.70;99.90;;;;;;5094721;28;20717;-78
2023/01/07 08:05:24;;;;;;;1.00;0.60;;;11.80;99.90;;;;;;5075498;28;20219;-78
2023/01/07 08:07:50;;;;;;;1.50;0.90;;;11.80;99.90;;;;;;5094538;28;20182;-80
2023/01/07 08:10:16;;;;;;;1.80;0.80;;;11.70;99.90;;;;;;5094591;28;20175;-78
2023/01/07 08:12:42;;;;;;;1.33;0.50;;;11.90;99.90;;;;;;5094644;28;20174;-79
2023/01/07 08:15:08;;;;;;;1.57;0.70;;;11.70;99.90;;;;;;5076679;28;20542;-78
2023/01/07 08:17:37;;;;;;;2.30;1.00;;;11.70;99.90;;;;;;5076291;28;20182;-80
2023/01/07 08:20:06;;;;;;;0.80;0.80;;;11.80;99.90;;;;;;5094517;28;20228;-78
2023/01/07 08:22:32;;;;;;;2.10;0.87;;;11.80;99.90;;;;;;5076085;28;20186;-80
2023/01/07 08:24:58;;;;;;;2.37;1.83;;;11.60;99.90;;;;;;5075483;28;20559;-79
2023/01/07 08:27:26;;;;;;;3.93;3.60;;;11.50;99.90;;;;;;5094255;28;20196;-78
2023/01/07 08:29:52;;;;;;;4.23;2.40;;;11.60;99.90;;;;;;5094076;28;20301;-78
2023/01/07 08:32:18;;;;;;;1.50;1.27;;;11.40;99.90;;;;;;5075985;28;20267;-78
2023/01/07 08:34:44;;;;;;;3.07;1.00;;;11.50;99.90;;;;;;5075899;28;20576;-80
2023/01/07 08:37:12;;;;;;;4.30;1.27;;;11.40;99.90;;;;;;5075503;28;20262;-80
2023/01/07 08:39:38;;;;;;;1.53;0.77;;;11.30;99.90;;;;;;5093685;28;20175;-79
2023/01/07 08:42:04;;;;;;;1.80;0.77;;;11.30;99.90;;;;;;5075636;28;20216;-79
2023/01/07 08:44:33;;;;;;;1.00;0.70;;;11.30;99.90;;;;;;5093572;28;20217;-79
2023/01/07 08:46:59;;;;;;;1.83;1.00;;;11.30;99.90;;;;;;5093774;28;20183;-79
2023/01/07 08:49:25;;;;;;;3.40;1.00;;;11.30;99.90;;;;;;5093636;28;20202;-79
2023/01/07 08:51:50;;;;;;;4.50;0.97;;;11.20;99.90;;;;;;5093763;28;20171;-79
2023/01/07 08:54:16;;;;;;;1.73;1.20;;;11.20;99.90;;;;;;5074746;28;20179;-79
2023/01/07 08:56:43;;;;;;;1.80;1.20;;;11.30;99.90;;;;;;5074803;28;20188;-79
2023/01/07 08:59:11;;;;;;;2.83;1.63;;;11.20;99.90;;;;;;5093272;28;20213;-79
2023/01/07 09:01:39;;;;;;;2.37;1.13;;;11.20;99.90;;;;;;5093008;28;20178;-78
2023/01/07 09:04:04;;;;;;;1.87;1.30;;;11.30;99.90;;;;;;5093160;28;20670;-79
2023/01/07 09:06:30;;;;;;;1.40;0.80;;;11.40;99.90;;;;;;5075378;28;20193;-79
2023/01/07 09:08:55;;;;;;;2.47;1.13;;;11.30;99.90;;;;;;5093215;28;20206;-79
2023/01/07 09:11:21;;;;;;;1.60;0.83;;;11.10;99.90;;;;;;5075331;28;20273;-78
2023/01/07 09:13:47;;;;;;;4.13;1.20;;;11.20;99.90;;;;;;5093336;28;20175;-78
2023/01/07 09:16:12;;;;;;;1.83;1.10;;;11.20;99.90;;;;;;5074948;28;20185;-78
2023/01/07 09:18:38;;;;;;;0.70;0.57;;;11.40;99.90;;;;;;5075371;28;20174;-78
2023/01/07 09:21:04;;;;;;;1.13;0.70;;;11.40;99.90;;;;;;5093149;28;20193;-78
2023/01/07 09:23:29;;;;;;;3.27;0.87;;;11.30;99.90;;;;;;5093580;28;20172;-78
2023/01/07 09:25:55;;;;;;;1.67;0.87;;;11.30;99.90;;;;;;5093002;28;20210;-73
2023/01/07 09:28:20;;;;;;;1.23;0.90;;;11.10;99.90;;;;;;5092809;28;20203;-73
2023/01/07 09:30:46;;;;;;;1.37;0.67;;;11.20;99.90;;;;;;5092882;28;20195;-74
2023/01/07 09:33:12;;;;;;;0.73;0.60;;;11.30;99.90;;;;;;5074740;28;20173;-74
2023/01/07 09:35:37;;;;;;;1.03;0.80;;;11.40;99.90;;;;;;5074852;28;20261;-73
2023/01/07 09:38:04;;;;;;;0.83;0.63;;;11.40;99.90;;;;;;5092761;28;20202;-73
2023/01/07 09:40:39;;;;;;;1.73;0.87;;;11.20;99.90;;;;;;5074433;28;20170;-74
2023/01/07 09:43:24;;;;;;;0.90;0.70;;;11.30;99.90;;;;;;5092836;28;20175;-73
2023/01/07 09:45:52;;;;;;;2.63;0.60;;;11.40;99.90;;;;;;5092285;28;20266;-73
2023/01/07 09:48:36;;;;;;;1.30;0.90;;;11.40;99.90;;;;;;5074254;28;20272;-75
2023/01/07 09:51:04;;;;;;;2.07;0.77;;;11.40;99.90;;;;;;5092875;28;20170;-75
2023/01/07 09:53:37;;;;;;;2.83;1.07;;;11.40;99.90;;;;;;5092544;28;20180;-73
2023/01/07 09:56:18;;;;;;;1.90;0.97;;;11.50;99.90;;;;;;5091792;28;20619;-75
2023/01/07 09:58:45;;;;;;;1.33;0.77;;;11.40;99.90;;;;;;5092216;28;20658;-75
2023/01/07 10:01:25;;;;;;;1.57;0.80;;;11.50;99.90;;;;;;5074046;28;20179;-73
2023/01/07 10:04:01;;;;;;;1.93;0.77;;;11.40;99.90;;;;;;5092591;28;20171;-75
2023/01/07 10:06:42;;;;;;;1.33;0.90;;;11.30;99.90;;;;;;5074032;28;20179;-73
2023/01/07 10:09:28;;;;;;;1.90;0.80;;;11.30;99.90;;;;;;5091786;28;20202;-75
2023/01/07 10:12:05;;;;;;;2.20;1.03;;;11.40;99.90;;;;;;5092174;28;20173;-74
2023/01/07 10:14:59;;;;;;;1.93;0.70;;;11.40;99.90;;;;;;5084883;28;20537;-75
2023/01/07 10:17:38;;;;;;;1.20;0.90;;;11.40;99.90;;;;;;5074322;28;20174;-75
2023/01/07 10:20:13;;;;;;;2.33;1.17;;;11.40;99.90;;;;;;5091955;28;20274;-74
2023/01/07 10:22:51;;;;;;;2.37;1.07;;;11.40;99.90;;;;;;5073979;28;20175;-73
2023/01/07 10:25:25;;;;;;;1.00;0.73;;;11.50;99.90;;;;;;5074045;28;20170;-73
2023/01/07 10:27:54;;;;;;;1.70;0.90;;;11.70;99.90;;;;;;5083247;28;20179;-75
2023/01/07 10:30:29;;;;;;;1.73;0.63;;;11.70;99.90;;;;;;5075945;28;20201;-74
2023/01/07 10:33:16;;;;;;;1.13;0.87;;;11.60;99.90;;;;;;5057965;28;20649;-75
2023/01/07 10:35:41;;;;;;;1.20;1.00;;;11.80;99.90;;;;;;5057646;28;20224;-73
2023/01/07 10:38:17;;;;;;;1.27;0.90;;;11.90;99.90;;;;;;5075730;28;20189;-73
2023/01/07 10:40:52;;;;;;;1.50;0.90;;;12.10;99.90;;;;;;5057714;28;20189;-75
2023/01/07 10:43:17;;;;;;;0.83;0.83;;;12.20;99.90;;;;;;5057925;28;20612;-73
2023/01/07 10:45:50;;;;;;;2.03;0.90;;;12.20;99.90;;;;;;5057668;28;20214;-75
2023/01/07 10:48:34;;;;;;;1.30;0.80;;;12.40;99.90;;;;;;5057867;28;20208;-74
2023/01/07 10:50:59;;;;;;;2.73;1.00;;;12.40;99.90;;;;;;5075280;28;20166;-74
2023/01/07 10:53:43;;;;;;;1.60;1.10;;;12.60;99.90;;;;;;5057677;28;20181;-75
2023/01/07 10:56:39;;;;;;;1.40;1.00;;;12.60;99.90;;;;;;5075533;28;20654;-73
2023/01/07 10:59:07;;;;;;;1.03;0.80;;;12.80;99.90;;;;;;5057702;28;20540;-74
2023/01/07 11:01:39;;;;;;;1.40;1.00;;;12.90;99.90;;;;;;5057484;28;20182;-74
2023/01/07 11:04:14;;;;;;;1.00;0.90;;;12.80;99.90;;;;;;5064734;28;20642;-76
2023/01/07 11:06:53;;;;;;;1.47;1.00;;;12.70;99.90;;;;;;5090461;28;20186;-75
2023/01/07 11:09:26;;;;;;;1.47;0.90;;;13.00;99.90;;;;;;5095738;28;20254;-75
2023/01/07 11:11:56;;;;;;;0.93;0.73;;;13.30;99.90;;;;;;5077230;28;20193;-75
2023/01/07 11:14:26;;;;;;;1.40;1.00;;;13.40;99.90;;;;;;5095505;28;20167;-73
2023/01/07 11:17:24;;;;;;;1.53;0.90;;;13.90;99.90;;;;;;5077161;28;20169;-74
2023/01/07 11:19:52;;;;;;;1.53;0.83;;;14.00;99.90;;;;;;5053068;28;20603;-75
2023/01/07 11:22:29;;;;;;;2.27;1.00;;;13.80;99.90;;;;;;5095293;28;20166;-74
2023/01/07 11:24:58;;;;;;;1.00;0.83;;;13.60;99.90;;;;;;5095267;28;20692;-74
2023/01/07 11:27:27;;;;;;;0.80;0.70;;;13.30;99.90;;;;;;5076978;28;20212;-75
2023/01/07 11:30:18;;;;;;;1.27;1.00;;;13.50;99.90;;;;;;5095041;28;20182;-74
2023/01/07 11:32:57;;;;;;;0.80;0.60;;;13.90;99.90;;;;;;5095069;28;20178;-74
2023/01/07 11:35:27;;;;;;;1.10;0.80;;;13.70;99.90;;;;;;5095062;28;20172;-75
2023/01/07 11:37:54;;;;;;;1.43;0.83;;;13.50;99.90;;;;;;5076873;28;20539;-74
2023/01/07 11:40:21;;;;;;;2.20;1.30;;;13.60;99.90;;;;;;5071421;28;20184;-75
2023/01/07 11:42:50;;;;;;;1.67;0.93;;;13.60;99.90;;;;;;5094880;28;20702;-74
2023/01/07 11:45:58;;;;;;;2.10;1.13;;;13.70;99.90;;;;;;5077064;28;20269;-75
2023/01/07 11:48:32;;;;;;;1.83;0.90;;;13.70;99.90;;;;;;5094437;28;20263;-74
2023/01/07 11:51:04;;;;;;;1.37;0.80;;;13.70;99.90;;;;;;5094962;28;20229;-74
2023/01/07 11:53:36;;;;;;;2.10;0.70;;;13.60;99.90;;;;;;5094761;28;20174;-74
2023/01/07 11:56:18;;;;;;;1.90;0.87;;;13.40;99.90;;;;;;5094944;28;20172;-74
2023/01/07 11:58:49;;;;;;;1.70;1.10;;;13.60;99.90;;;;;;5076620;28;20189;-75
2023/01/07 12:01:21;;;;;;;2.73;1.23;;;13.60;99.90;;;;;;5075945;28;20178;-74
2023/01/07 12:03:55;;;;;;;3.37;1.07;;;13.50;99.90;;;;;;5094272;28;20164;-74
2023/01/07 12:06:25;;;;;;;1.83;0.97;;;13.20;99.90;;;;;;5094413;28;20242;-74
2023/01/07 12:09:25;;;;;;;3.00;1.20;;;13.30;99.90;;;;;;5094192;28;20286;-75
2023/01/07 12:11:53;;;;;;;2.77;1.10;;;13.70;99.90;;;;;;5094034;28;20228;-74
2023/01/07 12:14:37;;;;;;;1.40;0.90;;;13.90;99.90;;;;;;5094456;28;20173;-74
2023/01/07 12:17:14;;;;;;;2.40;1.30;;;13.90;99.90;;;;;;5094006;28;20188;-74
2023/01/07 12:20:02;;;;;;;1.30;0.97;;;13.80;99.90;;;;;;5094422;28;20188;-74
2023/01/07 12:22:45;;;;;;;1.70;1.20;;;13.60;99.90;;;;;;5076237;28;20182;-75
2023/01/07 12:25:55;;;;;;;1.63;1.20;;;13.50;99.90;;;;;;5094345;28;20188;-75
2023/01/07 12:28:40;;;;;;;2.67;1.10;;;13.70;99.90;;;;;;5094216;28;20207;-75
2023/01/07 12:31:45;;;;;;;2.27;1.10;;;13.80;99.90;;;;;;5075883;28;20191;-75
2023/01/07 12:34:30;;;;;;;2.13;1.30;;;13.70;99.90;;;;;;5003997;28;20669;-75
2023/01/07 12:37:17;;;;;;;1.13;0.93;;;13.40;99.90;;;;;;5076099;28;20646;-74
2023/01/07 12:39:44;;;;;;;2.33;1.23;;;13.40;99.90;;;;;;5093649;28;20275;-74
2023/01/07 12:42:13;;;;;;;1.27;0.93;;;13.40;99.90;;;;;;5093960;28;20172;-74
2023/01/07 12:44:48;;;;;;;2.97;1.50;;;13.30;99.90;;;;;;5093921;28;20269;-76
2023/01/07 12:47:19;;;;;;;1.83;1.10;;;13.10;99.90;;;;;;5075409;28;20185;-74
2023/01/07 12:50:05;;;;;;;0.90;0.83;;;13.10;99.90;;;;;;5075527;28;20348;-75
2023/01/07 12:52:45;;;;;;;1.43;1.07;;;13.10;99.90;;;;;;5074624;28;20490;-75
2023/01/07 12:55:43;;;;;;;3.00;0.90;;;13.20;99.90;;;;;;5093675;28;20180;-75
2023/01/07 12:58:17;;;;;;;2.57;1.50;;;13.10;99.90;;;;;;5056071;28;20594;-75
2023/01/07 13:00:52;;;;;;;2.80;1.97;;;13.10;99.90;;;;;;5093312;28;20200;-75
2023/01/07 13:03:43;;;;;;;3.67;1.10;;;13.00;99.90;;;;;;5093439;28;20168;-74
2023/01/07 13:06:30;;;;;;;2.97;1.43;;;13.10;99.90;;;;;;5075282;28;20226;-75
2023/01/07 13:09:11;;;;;;;1.97;1.40;;;13.10;99.90;;;;;;5074854;28;20209;-75